sensor_id;sensor_type;location;lat;lon;timestamp;P1;durP1;ratioP1;P2;durP2;ratioP2
42602;SDS011;28233;55.748;48.752;2023-02-28T00:00:25;10.48;;;5.50;;
42602;SDS011;28233;55.748;48.752;2023-02-28T00:02:27;8.93;;;5.13;;
42602;SDS011;28233;55.748;48.752;2023-02-28T00:04:30;8.40;;;4.80;;
42602;SDS011;28233;55.748;48.752;2023-02-28T00:06:33;10.88;;;5.32;;
42602;SDS011;28233;55.748;48.752;2023-02-28T00:08:36;14.63;;;5.30;;
42602;SDS011;28233;55.748;48.752;2023-02-28T00:10:39;8.05;;;4.63;;
42602;SDS011;28233;55.748;48.752;2023-02-28T00:12:42;10.65;;;5.93;;
42602;SDS011;28233;55.748;48.752;2023-02-28T00:14:44;6.30;;;4.38;;
42602;SDS011;28233;55.748;48.752;2023-02-28T00:16:46;8.00;;;4.15;;
42602;SDS011;28233;55.748;48.752;2023-02-28T00:18:49;10.18;;;4.55;;
42602;SDS011;28233;55.748;48.752;2023-02-28T00:20:53;9.63;;;5.43;;
42602;SDS011;28233;55.748;48.752;2023-02-28T00:22:55;8.30;;;4.85;;
42602;SDS011;28233;55.748;48.752;2023-02-28T00:24:58;8.25;;;3.75;;
42602;SDS011;28233;55.748;48.752;2023-02-28T00:27:00;9.23;;;4.32;;
42602;SDS011;28233;55.748;48.752;2023-02-28T00:29:03;9.18;;;5.03;;
42602;SDS011;28233;55.748;48.752;2023-02-28T00:31:05;8.23;;;4.60;;
42602;SDS011;28233;55.748;48.752;2023-02-28T00:33:08;8.25;;;4.70;;
42602;SDS011;28233;55.748;48.752;2023-02-28T00:35:12;7.97;;;4.18;;
42602;SDS011;28233;55.748;48.752;2023-02-28T00:37:15;7.38;;;4.47;;
42602;SDS011;28233;55.748;48.752;2023-02-28T00:39:17;9.55;;;4.28;;
42602;SDS011;28233;55.748;48.752;2023-02-28T00:41:21;8.95;;;4.60;;
42602;SDS011;28233;55.748;48.752;2023-02-28T00:43:24;6.40;;;4.72;;
42602;SDS011;28233;55.748;48.752;2023-02-28T00:45:26;10.13;;;5.15;;
42602;SDS011;28233;55.748;48.752;2023-02-28T00:47:29;7.40;;;3.80;;
42602;SDS011;28233;55.748;48.752;2023-02-28T00:49:32;5.40;;;3.83;;
42602;SDS011;28233;55.748;48.752;2023-02-28T00:51:35;7.03;;;4.65;;
42602;SDS011;28233;55.748;48.752;2023-02-28T00:53:37;7.22;;;4.65;;
42602;SDS011;28233;55.748;48.752;2023-02-28T00:55:40;8.00;;;4.72;;
42602;SDS011;28233;55.748;48.752;2023-02-28T00:57:42;9.43;;;5.15;;
42602;SDS011;28233;55.748;48.752;2023-02-28T00:59:45;8.60;;;3.88;;
42602;SDS011;28233;55.748;48.752;2023-02-28T01:01:47;8.32;;;3.80;;
42602;SDS011;28233;55.748;48.752;2023-02-28T01:03:50;6.95;;;3.75;;
42602;SDS011;28233;55.748;48.752;2023-02-28T01:05:52;7.82;;;4.93;;
42602;SDS011;28233;55.748;48.752;2023-02-28T01:07:55;8.23;;;4.05;;
42602;SDS011;28233;55.748;48.752;2023-02-28T01:09:58;8.82;;;4.97;;
42602;SDS011;28233;55.748;48.752;2023-02-28T01:12:00;6.40;;;3.65;;
42602;SDS011;28233;55.748;48.752;2023-02-28T01:14:03;6.57;;;4.15;;
42602;SDS011;28233;55.748;48.752;2023-02-28T01:16:06;7.57;;;4.20;;
42602;SDS011;28233;55.748;48.752;2023-02-28T01:18:09;7.32;;;3.97;;
42602;SDS011;28233;55.748;48.752;2023-02-28T01:20:11;8.30;;;4.57;;
42602;SDS011;28233;55.748;48.752;2023-02-28T01:22:14;8.97;;;5.13;;
42602;SDS011;28233;55.748;48.752;2023-02-28T01:24:17;6.78;;;3.67;;
42602;SDS011;28233;55.748;48.752;2023-02-28T01:26:20;8.65;;;4.93;;
42602;SDS011;28233;55.748;48.752;2023-02-28T01:28:24;8.77;;;4.70;;
42602;SDS011;28233;55.748;48.752;2023-02-28T01:30:26;9.75;;;4.78;;
42602;SDS011;28233;55.748;48.752;2023-02-28T01:32:29;8.07;;;4.80;;
42602;SDS011;28233;55.748;48.752;2023-02-28T01:34:31;7.15;;;4.65;;
42602;SDS011;28233;55.748;48.752;2023-02-28T01:36:34;9.07;;;4.77;;
42602;SDS011;28233;55.748;48.752;2023-02-28T01:38:38;10.88;;;5.35;;
42602;SDS011;28233;55.748;48.752;2023-02-28T01:40:42;9.38;;;5.00;;
42602;SDS011;28233;55.748;48.752;2023-02-28T01:42:45;7.80;;;5.27;;
42602;SDS011;28233;55.748;48.752;2023-02-28T01:44:55;11.48;;;5.70;;
42602;SDS011;28233;55.748;48.752;2023-02-28T01:47:01;9.65;;;5.30;;
42602;SDS011;28233;55.748;48.752;2023-02-28T01:49:05;11.30;;;6.10;;
42602;SDS011;28233;55.748;48.752;2023-02-28T01:51:12;12.73;;;6.03;;
42602;SDS011;28233;55.748;48.752;2023-02-28T01:53:21;9.77;;;5.77;;
42602;SDS011;28233;55.748;48.752;2023-02-28T01:55:32;11.85;;;6.57;;
42602;SDS011;28233;55.748;48.752;2023-02-28T01:57:37;8.55;;;4.70;;
42602;SDS011;28233;55.748;48.752;2023-02-28T01:59:52;13.68;;;5.53;;
42602;SDS011;28233;55.748;48.752;2023-02-28T02:02:01;13.00;;;6.60;;
42602;SDS011;28233;55.748;48.752;2023-02-28T02:04:04;8.15;;;3.95;;
42602;SDS011;28233;55.748;48.752;2023-02-28T02:06:07;7.95;;;5.20;;
42602;SDS011;28233;55.748;48.752;2023-02-28T02:08:13;9.93;;;5.47;;
42602;SDS011;28233;55.748;48.752;2023-02-28T02:10:21;11.20;;;5.97;;
42602;SDS011;28233;55.748;48.752;2023-02-28T02:12:33;10.60;;;5.03;;
42602;SDS011;28233;55.748;48.752;2023-02-28T02:14:48;9.77;;;4.40;;
42602;SDS011;28233;55.748;48.752;2023-02-28T02:17:14;9.98;;;4.78;;
42602;SDS011;28233;55.748;48.752;2023-02-28T02:39:13;8.23;;;4.38;;
42602;SDS011;28233;55.748;48.752;2023-02-28T02:41:31;8.95;;;3.63;;
42602;SDS011;28233;55.748;48.752;2023-02-28T02:43:40;6.20;;;3.75;;
42602;SDS011;28233;55.748;48.752;2023-02-28T02:45:56;7.77;;;4.30;;
42602;SDS011;28233;55.748;48.752;2023-02-28T02:48:05;9.18;;;4.50;;
42602;SDS011;28233;55.748;48.752;2023-02-28T02:50:12;5.40;;;3.30;;
42602;SDS011;28233;55.748;48.752;2023-02-28T02:52:21;5.85;;;4.22;;
42602;SDS011;28233;55.748;48.752;2023-02-28T02:54:28;7.72;;;4.03;;
42602;SDS011;28233;55.748;48.752;2023-02-28T02:56:34;6.45;;;3.58;;
42602;SDS011;28233;55.748;48.752;2023-02-28T02:58:41;6.23;;;3.40;;
42602;SDS011;28233;55.748;48.752;2023-02-28T03:00:47;6.35;;;3.47;;
42602;SDS011;28233;55.748;48.752;2023-02-28T03:02:55;5.93;;;3.20;;
42602;SDS011;28233;55.748;48.752;2023-02-28T03:04:59;5.50;;;3.33;;
42602;SDS011;28233;55.748;48.752;2023-02-28T03:07:06;12.32;;;4.18;;
42602;SDS011;28233;55.748;48.752;2023-02-28T03:09:08;7.45;;;4.03;;
42602;SDS011;28233;55.748;48.752;2023-02-28T03:11:12;6.03;;;3.88;;
42602;SDS011;28233;55.748;48.752;2023-02-28T03:18:04;9.00;;;4.00;;
42602;SDS011;28233;55.748;48.752;2023-02-28T03:23:03;6.97;;;3.85;;
42602;SDS011;28233;55.748;48.752;2023-02-28T03:30:06;6.33;;;3.90;;
42602;SDS011;28233;55.748;48.752;2023-02-28T03:32:16;6.45;;;3.53;;
42602;SDS011;28233;55.748;48.752;2023-02-28T03:34:38;5.05;;;3.28;;
42602;SDS011;28233;55.748;48.752;2023-02-28T03:36:47;5.13;;;3.40;;
42602;SDS011;28233;55.748;48.752;2023-02-28T03:39:01;5.47;;;3.08;;
42602;SDS011;28233;55.748;48.752;2023-02-28T03:41:13;7.57;;;3.97;;
42602;SDS011;28233;55.748;48.752;2023-02-28T03:43:21;6.88;;;3.78;;
42602;SDS011;28233;55.748;48.752;2023-02-28T03:45:28;8.10;;;3.60;;
42602;SDS011;28233;55.748;48.752;2023-02-28T03:47:45;5.20;;;2.90;;
42602;SDS011;28233;55.748;48.752;2023-02-28T03:49:57;3.50;;;2.28;;
42602;SDS011;28233;55.748;48.752;2023-02-28T03:52:05;7.20;;;3.10;;
42602;SDS011;28233;55.748;48.752;2023-02-28T03:54:12;5.73;;;4.03;;
42602;SDS011;28233;55.748;48.752;2023-02-28T03:59:37;6.47;;;3.57;;
42602;SDS011;28233;55.748;48.752;2023-02-28T04:01:45;7.70;;;4.13;;
42602;SDS011;28233;55.748;48.752;2023-02-28T04:03:50;6.83;;;3.60;;
42602;SDS011;28233;55.748;48.752;2023-02-28T04:05:54;7.17;;;3.70;;
42602;SDS011;28233;55.748;48.752;2023-02-28T04:08:05;9.17;;;3.80;;
42602;SDS011;28233;55.748;48.752;2023-02-28T04:10:09;6.50;;;3.87;;
42602;SDS011;28233;55.748;48.752;2023-02-28T04:12:13;10.23;;;4.17;;
42602;SDS011;28233;55.748;48.752;2023-02-28T04:14:16;8.30;;;4.00;;
42602;SDS011;28233;55.748;48.752;2023-02-28T04:16:19;9.83;;;3.70;;
42602;SDS011;28233;55.748;48.752;2023-02-28T04:18:36;9.17;;;4.03;;
42602;SDS011;28233;55.748;48.752;2023-02-28T04:20:38;5.50;;;3.20;;
42602;SDS011;28233;55.748;48.752;2023-02-28T04:22:41;8.00;;;3.07;;
42602;SDS011;28233;55.748;48.752;2023-02-28T04:24:44;6.20;;;3.50;;
42602;SDS011;28233;55.748;48.752;2023-02-28T04:26:47;5.90;;;3.53;;
42602;SDS011;28233;55.748;48.752;2023-02-28T04:28:52;8.33;;;3.77;;
42602;SDS011;28233;55.748;48.752;2023-02-28T04:30:58;7.57;;;3.60;;
42602;SDS011;28233;55.748;48.752;2023-02-28T04:33:03;6.20;;;3.47;;
42602;SDS011;28233;55.748;48.752;2023-02-28T04:35:05;8.97;;;3.90;;
42602;SDS011;28233;55.748;48.752;2023-02-28T04:37:08;7.93;;;4.50;;
42602;SDS011;28233;55.748;48.752;2023-02-28T04:39:15;11.33;;;3.97;;
42602;SDS011;28233;55.748;48.752;2023-02-28T04:41:20;8.00;;;4.10;;
42602;SDS011;28233;55.748;48.752;2023-02-28T04:43:23;9.10;;;4.50;;
42602;SDS011;28233;55.748;48.752;2023-02-28T04:45:26;8.07;;;4.43;;
42602;SDS011;28233;55.748;48.752;2023-02-28T04:47:32;10.90;;;6.75;;
42602;SDS011;28233;55.748;48.752;2023-02-28T04:49:34;11.03;;;6.23;;
42602;SDS011;28233;55.748;48.752;2023-02-28T04:51:37;9.80;;;5.20;;
42602;SDS011;28233;55.748;48.752;2023-02-28T04:53:40;9.68;;;5.93;;
42602;SDS011;28233;55.748;48.752;2023-02-28T04:55:44;11.60;;;5.63;;
42602;SDS011;28233;55.748;48.752;2023-02-28T04:57:47;9.87;;;4.93;;
42602;SDS011;28233;55.748;48.752;2023-02-28T04:59:50;10.27;;;5.88;;
42602;SDS011;28233;55.748;48.752;2023-02-28T05:01:52;10.30;;;5.20;;
42602;SDS011;28233;55.748;48.752;2023-02-28T05:03:56;8.33;;;5.17;;
42602;SDS011;28233;55.748;48.752;2023-02-28T05:06:00;11.90;;;5.40;;
42602;SDS011;28233;55.748;48.752;2023-02-28T05:08:03;9.10;;;5.50;;
42602;SDS011;28233;55.748;48.752;2023-02-28T05:10:07;10.75;;;5.60;;
42602;SDS011;28233;55.748;48.752;2023-02-28T05:12:11;8.73;;;5.00;;
42602;SDS011;28233;55.748;48.752;2023-02-28T05:14:14;7.72;;;4.60;;
42602;SDS011;28233;55.748;48.752;2023-02-28T05:16:17;10.53;;;5.73;;
42602;SDS011;28233;55.748;48.752;2023-02-28T05:18:20;12.70;;;5.70;;
42602;SDS011;28233;55.748;48.752;2023-02-28T05:20:23;11.38;;;5.53;;
42602;SDS011;28233;55.748;48.752;2023-02-28T05:22:25;12.80;;;5.33;;
42602;SDS011;28233;55.748;48.752;2023-02-28T05:24:28;12.47;;;5.63;;
42602;SDS011;28233;55.748;48.752;2023-02-28T05:26:33;10.57;;;4.97;;
42602;SDS011;28233;55.748;48.752;2023-02-28T05:28:38;10.73;;;5.13;;
42602;SDS011;28233;55.748;48.752;2023-02-28T05:30:41;12.23;;;5.75;;
42602;SDS011;28233;55.748;48.752;2023-02-28T05:32:43;10.13;;;5.00;;
42602;SDS011;28233;55.748;48.752;2023-02-28T05:34:46;8.57;;;5.07;;
42602;SDS011;28233;55.748;48.752;2023-02-28T05:36:48;8.87;;;5.00;;
42602;SDS011;28233;55.748;48.752;2023-02-28T05:38:51;11.18;;;5.45;;
42602;SDS011;28233;55.748;48.752;2023-02-28T05:40:54;9.90;;;5.30;;
42602;SDS011;28233;55.748;48.752;2023-02-28T05:42:56;10.40;;;5.28;;
42602;SDS011;28233;55.748;48.752;2023-02-28T05:44:59;10.07;;;5.60;;
42602;SDS011;28233;55.748;48.752;2023-02-28T05:47:01;10.48;;;4.55;;
42602;SDS011;28233;55.748;48.752;2023-02-28T05:49:04;9.45;;;4.57;;
42602;SDS011;28233;55.748;48.752;2023-02-28T05:51:07;10.35;;;5.38;;
42602;SDS011;28233;55.748;48.752;2023-02-28T05:53:10;10.98;;;5.03;;
42602;SDS011;28233;55.748;48.752;2023-02-28T05:55:13;10.35;;;4.55;;
42602;SDS011;28233;55.748;48.752;2023-02-28T05:57:15;9.73;;;4.20;;
42602;SDS011;28233;55.748;48.752;2023-02-28T05:59:25;6.72;;;4.20;;
42602;SDS011;28233;55.748;48.752;2023-02-28T06:03:38;8.57;;;4.30;;
42602;SDS011;28233;55.748;48.752;2023-02-28T06:05:41;10.52;;;4.50;;
42602;SDS011;28233;55.748;48.752;2023-02-28T06:07:43;11.50;;;4.00;;
42602;SDS011;28233;55.748;48.752;2023-02-28T06:09:46;11.40;;;5.00;;
42602;SDS011;28233;55.748;48.752;2023-02-28T06:11:49;7.10;;;4.03;;
42602;SDS011;28233;55.748;48.752;2023-02-28T06:13:52;6.32;;;3.22;;
42602;SDS011;28233;55.748;48.752;2023-02-28T06:16:01;8.23;;;4.30;;
42602;SDS011;28233;55.748;48.752;2023-02-28T06:18:04;6.53;;;3.40;;
42602;SDS011;28233;55.748;48.752;2023-02-28T06:20:07;6.23;;;3.70;;
42602;SDS011;28233;55.748;48.752;2023-02-28T06:22:10;11.57;;;5.10;;
42602;SDS011;28233;55.748;48.752;2023-02-28T06:24:13;6.85;;;3.50;;
42602;SDS011;28233;55.748;48.752;2023-02-28T06:26:15;6.27;;;3.73;;
42602;SDS011;28233;55.748;48.752;2023-02-28T06:28:18;9.90;;;3.87;;
42602;SDS011;28233;55.748;48.752;2023-02-28T06:30:21;7.35;;;4.45;;
42602;SDS011;28233;55.748;48.752;2023-02-28T06:32:29;8.17;;;3.77;;
42602;SDS011;28233;55.748;48.752;2023-02-28T06:34:31;8.38;;;3.58;;
42602;SDS011;28233;55.748;48.752;2023-02-28T06:36:37;8.53;;;4.10;;
42602;SDS011;28233;55.748;48.752;2023-02-28T06:38:41;5.72;;;3.08;;
42602;SDS011;28233;55.748;48.752;2023-02-28T06:40:44;9.65;;;4.45;;
42602;SDS011;28233;55.748;48.752;2023-02-28T06:42:54;6.00;;;3.55;;
42602;SDS011;28233;55.748;48.752;2023-02-28T06:44:57;6.05;;;3.55;;
42602;SDS011;28233;55.748;48.752;2023-02-28T06:47:00;7.85;;;3.60;;
42602;SDS011;28233;55.748;48.752;2023-02-28T06:49:05;8.38;;;3.67;;
42602;SDS011;28233;55.748;48.752;2023-02-28T06:51:19;6.78;;;3.15;;
42602;SDS011;28233;55.748;48.752;2023-02-28T06:53:24;6.13;;;3.65;;
42602;SDS011;28233;55.748;48.752;2023-02-28T06:55:26;7.63;;;3.78;;
42602;SDS011;28233;55.748;48.752;2023-02-28T06:57:32;6.65;;;2.85;;
42602;SDS011;28233;55.748;48.752;2023-02-28T06:59:35;7.43;;;2.80;;
42602;SDS011;28233;55.748;48.752;2023-02-28T07:01:38;6.68;;;3.05;;
42602;SDS011;28233;55.748;48.752;2023-02-28T07:03:41;6.00;;;3.13;;
42602;SDS011;28233;55.748;48.752;2023-02-28T07:05:44;8.82;;;3.05;;
42602;SDS011;28233;55.748;48.752;2023-02-28T07:07:47;7.22;;;2.72;;
42602;SDS011;28233;55.748;48.752;2023-02-28T07:09:50;5.60;;;2.97;;
42602;SDS011;28233;55.748;48.752;2023-02-28T07:11:53;5.05;;;2.58;;
42602;SDS011;28233;55.748;48.752;2023-02-28T07:13:55;7.40;;;2.47;;
42602;SDS011;28233;55.748;48.752;2023-02-28T07:16:00;5.25;;;2.53;;
42602;SDS011;28233;55.748;48.752;2023-02-28T07:18:06;6.28;;;2.67;;
42602;SDS011;28233;55.748;48.752;2023-02-28T07:20:08;5.70;;;2.70;;
42602;SDS011;28233;55.748;48.752;2023-02-28T07:22:11;4.47;;;2.65;;
42602;SDS011;28233;55.748;48.752;2023-02-28T07:24:17;5.53;;;2.80;;
42602;SDS011;28233;55.748;48.752;2023-02-28T07:26:20;3.03;;;1.73;;
42602;SDS011;28233;55.748;48.752;2023-02-28T07:28:23;3.08;;;2.08;;
42602;SDS011;28233;55.748;48.752;2023-02-28T07:30:26;5.35;;;1.88;;
42602;SDS011;28233;55.748;48.752;2023-02-28T07:32:29;8.18;;;2.40;;
42602;SDS011;28233;55.748;48.752;2023-02-28T07:34:31;5.20;;;2.22;;
42602;SDS011;28233;55.748;48.752;2023-02-28T07:36:34;4.03;;;2.15;;
42602;SDS011;28233;55.748;48.752;2023-02-28T07:38:37;3.47;;;1.83;;
42602;SDS011;28233;55.748;48.752;2023-02-28T07:40:39;4.03;;;2.47;;
42602;SDS011;28233;55.748;48.752;2023-02-28T07:42:42;4.78;;;1.77;;
42602;SDS011;28233;55.748;48.752;2023-02-28T07:44:44;7.20;;;2.10;;
42602;SDS011;28233;55.748;48.752;2023-02-28T07:46:47;6.45;;;2.30;;
42602;SDS011;28233;55.748;48.752;2023-02-28T07:48:50;5.60;;;2.45;;
42602;SDS011;28233;55.748;48.752;2023-02-28T07:50:56;4.03;;;1.80;;
42602;SDS011;28233;55.748;48.752;2023-02-28T07:52:59;5.25;;;2.22;;
42602;SDS011;28233;55.748;48.752;2023-02-28T07:55:02;4.25;;;1.73;;
42602;SDS011;28233;55.748;48.752;2023-02-28T07:57:06;3.15;;;2.35;;
42602;SDS011;28233;55.748;48.752;2023-02-28T07:59:10;6.07;;;2.35;;
42602;SDS011;28233;55.748;48.752;2023-02-28T08:01:13;5.20;;;2.83;;
42602;SDS011;28233;55.748;48.752;2023-02-28T08:03:19;3.75;;;1.90;;
42602;SDS011;28233;55.748;48.752;2023-02-28T08:05:23;5.30;;;2.17;;
42602;SDS011;28233;55.748;48.752;2023-02-28T08:07:26;3.67;;;1.80;;
42602;SDS011;28233;55.748;48.752;2023-02-28T08:09:28;3.42;;;1.83;;
42602;SDS011;28233;55.748;48.752;2023-02-28T08:11:32;3.55;;;1.98;;
42602;SDS011;28233;55.748;48.752;2023-02-28T08:13:35;3.55;;;1.83;;
42602;SDS011;28233;55.748;48.752;2023-02-28T08:15:37;2.72;;;1.40;;
42602;SDS011;28233;55.748;48.752;2023-02-28T08:17:40;2.53;;;1.33;;
42602;SDS011;28233;55.748;48.752;2023-02-28T08:19:44;3.00;;;1.45;;
42602;SDS011;28233;55.748;48.752;2023-02-28T08:21:48;1.58;;;1.08;;
42602;SDS011;28233;55.748;48.752;2023-02-28T08:23:50;3.58;;;1.65;;
42602;SDS011;28233;55.748;48.752;2023-02-28T08:25:56;3.70;;;2.13;;
42602;SDS011;28233;55.748;48.752;2023-02-28T08:27:59;3.15;;;1.52;;
42602;SDS011;28233;55.748;48.752;2023-02-28T08:30:01;3.50;;;1.70;;
42602;SDS011;28233;55.748;48.752;2023-02-28T08:32:06;2.70;;;1.58;;
42602;SDS011;28233;55.748;48.752;2023-02-28T08:34:24;5.22;;;1.92;;
42602;SDS011;28233;55.748;48.752;2023-02-28T08:36:27;4.20;;;2.00;;
42602;SDS011;28233;55.748;48.752;2023-02-28T08:38:31;3.53;;;1.83;;
42602;SDS011;28233;55.748;48.752;2023-02-28T08:40:33;3.20;;;1.88;;
42602;SDS011;28233;55.748;48.752;2023-02-28T08:42:36;2.38;;;1.63;;
42602;SDS011;28233;55.748;48.752;2023-02-28T08:44:38;3.20;;;1.55;;
42602;SDS011;28233;55.748;48.752;2023-02-28T08:46:42;2.33;;;1.60;;
42602;SDS011;28233;55.748;48.752;2023-02-28T08:48:45;3.40;;;1.60;;
42602;SDS011;28233;55.748;48.752;2023-02-28T08:51:10;2.75;;;1.55;;
42602;SDS011;28233;55.748;48.752;2023-02-28T08:53:12;3.42;;;1.67;;
42602;SDS011;28233;55.748;48.752;2023-02-28T08:55:15;3.10;;;1.00;;
42602;SDS011;28233;55.748;48.752;2023-02-28T08:57:17;1.73;;;1.33;;
42602;SDS011;28233;55.748;48.752;2023-02-28T08:59:20;4.13;;;1.35;;
42602;SDS011;28233;55.748;48.752;2023-02-28T09:01:26;3.67;;;1.30;;
42602;SDS011;28233;55.748;48.752;2023-02-28T09:03:31;4.15;;;1.90;;
42602;SDS011;28233;55.748;48.752;2023-02-28T09:05:34;2.20;;;1.63;;
42602;SDS011;28233;55.748;48.752;2023-02-28T09:07:37;3.03;;;1.48;;
42602;SDS011;28233;55.748;48.752;2023-02-28T09:09:39;1.95;;;1.38;;
42602;SDS011;28233;55.748;48.752;2023-02-28T09:11:56;2.90;;;1.67;;
42602;SDS011;28233;55.748;48.752;2023-02-28T09:13:59;2.42;;;1.40;;
42602;SDS011;28233;55.748;48.752;2023-02-28T09:16:03;3.17;;;1.67;;
42602;SDS011;28233;55.748;48.752;2023-02-28T09:18:07;3.65;;;2.05;;
42602;SDS011;28233;55.748;48.752;2023-02-28T09:20:10;3.42;;;1.90;;
42602;SDS011;28233;55.748;48.752;2023-02-28T09:22:13;3.33;;;1.80;;
42602;SDS011;28233;55.748;48.752;2023-02-28T09:24:15;3.45;;;1.40;;
42602;SDS011;28233;55.748;48.752;2023-02-28T09:26:19;3.45;;;2.22;;
42602;SDS011;28233;55.748;48.752;2023-02-28T09:28:24;3.47;;;1.67;;
42602;SDS011;28233;55.748;48.752;2023-02-28T09:30:27;9.88;;;2.30;;
42602;SDS011;28233;55.748;48.752;2023-02-28T09:32:30;3.53;;;1.75;;
42602;SDS011;28233;55.748;48.752;2023-02-28T09:34:33;3.45;;;1.85;;
42602;SDS011;28233;55.748;48.752;2023-02-28T09:36:36;4.28;;;1.63;;
42602;SDS011;28233;55.748;48.752;2023-02-28T09:38:47;3.13;;;1.92;;
42602;SDS011;28233;55.748;48.752;2023-02-28T09:40:53;2.63;;;1.35;;
42602;SDS011;28233;55.748;48.752;2023-02-28T09:42:58;3.47;;;1.83;;
42602;SDS011;28233;55.748;48.752;2023-02-28T09:45:03;2.22;;;1.40;;
42602;SDS011;28233;55.748;48.752;2023-02-28T09:47:27;6.00;;;2.05;;
42602;SDS011;28233;55.748;48.752;2023-02-28T09:49:42;5.88;;;1.63;;
42602;SDS011;28233;55.748;48.752;2023-02-28T09:54:06;3.45;;;1.25;;
42602;SDS011;28233;55.748;48.752;2023-02-28T09:57:01;4.28;;;1.95;;
42602;SDS011;28233;55.748;48.752;2023-02-28T09:58:56;3.20;;;1.20;;
42602;SDS011;28233;55.748;48.752;2023-02-28T10:01:39;2.55;;;1.55;;
42602;SDS011;28233;55.748;48.752;2023-02-28T10:03:39;3.17;;;1.55;;
42602;SDS011;28233;55.748;48.752;2023-02-28T10:05:52;3.75;;;1.35;;
42602;SDS011;28233;55.748;48.752;2023-02-28T10:08:06;3.08;;;1.20;;
42602;SDS011;28233;55.748;48.752;2023-02-28T10:10:19;2.63;;;1.23;;
42602;SDS011;28233;55.748;48.752;2023-02-28T10:12:26;8.32;;;1.30;;
42602;SDS011;28233;55.748;48.752;2023-02-28T10:14:33;2.58;;;1.30;;
42602;SDS011;28233;55.748;48.752;2023-02-28T10:16:43;2.95;;;1.63;;
42602;SDS011;28233;55.748;48.752;2023-02-28T10:21:04;2.72;;;1.48;;
42602;SDS011;28233;55.748;48.752;2023-02-28T10:23:21;3.25;;;1.73;;
42602;SDS011;28233;55.748;48.752;2023-02-28T10:25:35;4.72;;;1.90;;
42602;SDS011;28233;55.748;48.752;2023-02-28T10:27:40;4.38;;;2.28;;
42602;SDS011;28233;55.748;48.752;2023-02-28T10:29:54;2.83;;;1.77;;
42602;SDS011;28233;55.748;48.752;2023-02-28T10:32:00;2.95;;;1.60;;
42602;SDS011;28233;55.748;48.752;2023-02-28T10:34:06;1.83;;;1.15;;
42602;SDS011;28233;55.748;48.752;2023-02-28T10:36:15;2.50;;;1.52;;
42602;SDS011;28233;55.748;48.752;2023-02-28T10:38:27;3.33;;;1.85;;
42602;SDS011;28233;55.748;48.752;2023-02-28T10:40:41;3.65;;;1.85;;
42602;SDS011;28233;55.748;48.752;2023-02-28T10:43:03;2.67;;;1.55;;
42602;SDS011;28233;55.748;48.752;2023-02-28T10:45:16;2.90;;;1.50;;
42602;SDS011;28233;55.748;48.752;2023-02-28T10:47:19;2.33;;;1.65;;
42602;SDS011;28233;55.748;48.752;2023-02-28T10:49:27;2.85;;;1.50;;
42602;SDS011;28233;55.748;48.752;2023-02-28T10:51:37;3.20;;;1.30;;
42602;SDS011;28233;55.748;48.752;2023-02-28T10:53:51;3.50;;;2.15;;
42602;SDS011;28233;55.748;48.752;2023-02-28T10:56:04;3.22;;;1.45;;
42602;SDS011;28233;55.748;48.752;2023-02-28T10:58:25;2.63;;;1.27;;
42602;SDS011;28233;55.748;48.752;2023-02-28T11:00:35;2.47;;;1.40;;
42602;SDS011;28233;55.748;48.752;2023-02-28T11:02:38;3.47;;;1.67;;
42602;SDS011;28233;55.748;48.752;2023-02-28T11:04:45;4.60;;;1.70;;
42602;SDS011;28233;55.748;48.752;2023-02-28T11:06:59;3.25;;;1.58;;
42602;SDS011;28233;55.748;48.752;2023-02-28T11:09:24;4.65;;;1.88;;
42602;SDS011;28233;55.748;48.752;2023-02-28T11:11:41;1.73;;;1.13;;
42602;SDS011;28233;55.748;48.752;2023-02-28T11:13:50;2.95;;;1.80;;
42602;SDS011;28233;55.748;48.752;2023-02-28T11:15:57;5.07;;;2.20;;
42602;SDS011;28233;55.748;48.752;2023-02-28T11:20:18;3.88;;;1.52;;
42602;SDS011;28233;55.748;48.752;2023-02-28T11:22:26;2.13;;;1.35;;
42602;SDS011;28233;55.748;48.752;2023-02-28T11:24:33;3.25;;;1.20;;
42602;SDS011;28233;55.748;48.752;2023-02-28T11:28:44;2.35;;;1.50;;
42602;SDS011;28233;55.748;48.752;2023-02-28T11:30:48;2.50;;;1.52;;
42602;SDS011;28233;55.748;48.752;2023-02-28T11:33:37;7.03;;;2.05;;
42602;SDS011;28233;55.748;48.752;2023-02-28T11:35:46;3.10;;;1.45;;
42602;SDS011;28233;55.748;48.752;2023-02-28T11:37:52;2.45;;;1.55;;
42602;SDS011;28233;55.748;48.752;2023-02-28T11:39:56;3.17;;;1.50;;
42602;SDS011;28233;55.748;48.752;2023-02-28T11:45:24;3.38;;;1.67;;
42602;SDS011;28233;55.748;48.752;2023-02-28T11:47:19;8.75;;;1.73;;
42602;SDS011;28233;55.748;48.752;2023-02-28T11:49:46;3.78;;;1.83;;
42602;SDS011;28233;55.748;48.752;2023-02-28T11:52:10;3.47;;;1.83;;
42602;SDS011;28233;55.748;48.752;2023-02-28T12:04:11;5.25;;;2.33;;
42602;SDS011;28233;55.748;48.752;2023-02-28T12:13:19;6.43;;;2.28;;
42602;SDS011;28233;55.748;48.752;2023-02-28T12:20:13;3.17;;;2.00;;
42602;SDS011;28233;55.748;48.752;2023-02-28T12:26:41;4.93;;;2.03;;
42602;SDS011;28233;55.748;48.752;2023-02-28T12:28:48;5.07;;;2.53;;
42602;SDS011;28233;55.748;48.752;2023-02-28T12:33:26;3.50;;;1.83;;
42602;SDS011;28233;55.748;48.752;2023-02-28T12:35:41;4.25;;;2.30;;
42602;SDS011;28233;55.748;48.752;2023-02-28T12:38:04;4.78;;;2.35;;
42602;SDS011;28233;55.748;48.752;2023-02-28T12:40:14;2.10;;;1.35;;
42602;SDS011;28233;55.748;48.752;2023-02-28T12:42:28;2.95;;;1.40;;
42602;SDS011;28233;55.748;48.752;2023-02-28T12:44:40;2.95;;;1.65;;
42602;SDS011;28233;55.748;48.752;2023-02-28T12:46:50;3.55;;;1.75;;
42602;SDS011;28233;55.748;48.752;2023-02-28T12:48:56;2.50;;;1.52;;
42602;SDS011;28233;55.748;48.752;2023-02-28T12:51:05;3.47;;;2.03;;
42602;SDS011;28233;55.748;48.752;2023-02-28T13:09:13;4.10;;;1.45;;
42602;SDS011;28233;55.748;48.752;2023-02-28T13:13:34;3.67;;;1.60;;
42602;SDS011;28233;55.748;48.752;2023-02-28T13:15:37;3.65;;;1.92;;
42602;SDS011;28233;55.748;48.752;2023-02-28T13:17:42;3.13;;;1.70;;
42602;SDS011;28233;55.748;48.752;2023-02-28T13:21:55;3.47;;;1.80;;
42602;SDS011;28233;55.748;48.752;2023-02-28T13:24:01;2.63;;;1.60;;
42602;SDS011;28233;55.748;48.752;2023-02-28T13:26:06;2.00;;;1.48;;
42602;SDS011;28233;55.748;48.752;2023-02-28T13:28:10;4.38;;;1.67;;
42602;SDS011;28233;55.748;48.752;2023-02-28T13:35:36;3.42;;;1.55;;
42602;SDS011;28233;55.748;48.752;2023-02-28T13:37:46;4.18;;;1.27;;
42602;SDS011;28233;55.748;48.752;2023-02-28T13:41:59;2.97;;;2.08;;
42602;SDS011;28233;55.748;48.752;2023-02-28T13:49:31;3.15;;;1.73;;
42602;SDS011;28233;55.748;48.752;2023-02-28T13:53:54;3.33;;;1.70;;
42602;SDS011;28233;55.748;48.752;2023-02-28T14:05:35;2.83;;;1.52;;
42602;SDS011;28233;55.748;48.752;2023-02-28T14:07:46;6.07;;;2.05;;
42602;SDS011;28233;55.748;48.752;2023-02-28T14:10:02;4.55;;;1.85;;
42602;SDS011;28233;55.748;48.752;2023-02-28T14:16:51;3.20;;;1.70;;
42602;SDS011;28233;55.748;48.752;2023-02-28T14:18:56;4.35;;;1.73;;
42602;SDS011;28233;55.748;48.752;2023-02-28T14:21:24;2.45;;;1.45;;
42602;SDS011;28233;55.748;48.752;2023-02-28T14:25:34;3.67;;;1.63;;
42602;SDS011;28233;55.748;48.752;2023-02-28T14:30:16;3.00;;;1.52;;
42602;SDS011;28233;55.748;48.752;2023-02-28T14:32:49;3.58;;;1.90;;
42602;SDS011;28233;55.748;48.752;2023-02-28T14:35:03;2.70;;;2.08;;
42602;SDS011;28233;55.748;48.752;2023-02-28T14:37:13;2.95;;;1.65;;
42602;SDS011;28233;55.748;48.752;2023-02-28T14:39:22;5.25;;;1.83;;
42602;SDS011;28233;55.748;48.752;2023-02-28T14:41:31;4.47;;;1.75;;